createdAt,value
2022-10-02T00:00:02.850Z,1.90
2022-10-02T00:03:22.694Z,2.10
2022-10-02T00:09:47.908Z,2.20
2022-10-02T00:13:02.217Z,2.30
2022-10-02T00:16:24.948Z,2.40
2022-10-02T00:19:32.828Z,2.40
2022-10-02T00:22:53.288Z,2.30
2022-10-02T00:26:08.578Z,2.30
2022-10-02T00:29:35.034Z,2.40
2022-10-02T00:32:57.393Z,2.40
2022-10-02T00:36:24.438Z,2.40
2022-10-02T00:39:47.885Z,2.50
2022-10-02T00:43:11.622Z,2.60
2022-10-02T00:46:41.287Z,2.50
2022-10-02T00:50:16.497Z,2.40
2022-10-02T00:53:44.012Z,2.50
2022-10-02T00:57:07.232Z,2.40
2022-10-02T01:00:17.547Z,2.60
2022-10-02T01:03:30.378Z,2.20
2022-10-02T01:06:38.954Z,2.40
2022-10-02T01:09:49.551Z,2.50
2022-10-02T01:12:59.850Z,2.50
2022-10-02T01:16:14.308Z,2.50
2022-10-02T01:19:36.627Z,2.50
2022-10-02T01:22:56.332Z,2.60
2022-10-02T01:26:04.771Z,2.50
2022-10-02T01:29:13.036Z,2.80
2022-10-02T01:32:21.369Z,2.70
2022-10-02T01:35:33.895Z,2.50
2022-10-02T01:38:43.431Z,2.30
2022-10-02T01:41:51.425Z,2.50
2022-10-02T01:45:00.127Z,2.40
2022-10-02T01:48:21.248Z,2.50
2022-10-02T01:51:57.137Z,2.30
2022-10-02T01:55:23.764Z,2.30
2022-10-02T01:58:46.832Z,2.30
2022-10-02T02:02:08.608Z,2.40
2022-10-02T02:05:30.820Z,2.40
2022-10-02T02:08:49.224Z,2.40
2022-10-02T02:12:09.547Z,2.20
2022-10-02T02:15:25.237Z,2.20
2022-10-02T02:18:41.221Z,2.90
2022-10-02T02:21:55.659Z,2.20
2022-10-02T02:25:09.648Z,2.20
2022-10-02T02:28:23.160Z,2.20
2022-10-02T02:31:38.231Z,2.00
2022-10-02T02:34:52.798Z,2.20
2022-10-02T02:38:07.837Z,2.20
2022-10-02T02:41:21.919Z,2.20
2022-10-02T02:44:36.455Z,2.20
2022-10-02T02:47:50.764Z,2.00
2022-10-02T02:51:05.133Z,2.00
2022-10-02T02:54:21.526Z,2.10
2022-10-02T02:57:38.544Z,2.50
2022-10-02T03:00:46.727Z,2.10
2022-10-02T03:03:54.678Z,1.90
2022-10-02T03:07:07.551Z,1.90
2022-10-02T03:10:24.669Z,1.80
2022-10-02T03:13:52.237Z,1.90
2022-10-02T03:17:13.649Z,1.80
2022-10-02T03:20:35.895Z,1.90
2022-10-02T03:24:02.763Z,1.80
2022-10-02T03:27:19.081Z,2.10
2022-10-02T03:30:27.515Z,1.80
2022-10-02T03:33:39.621Z,2.00
2022-10-02T03:36:48.020Z,1.90
2022-10-02T03:39:58.839Z,1.80
2022-10-02T03:43:08.378Z,1.90
2022-10-02T03:46:16.619Z,1.90
2022-10-02T03:49:24.735Z,1.80
2022-10-02T03:52:36.206Z,1.90
2022-10-02T03:55:49.032Z,1.80
2022-10-02T03:59:02.738Z,1.80
2022-10-02T04:02:24.627Z,2.10
2022-10-02T04:05:38.210Z,1.90
2022-10-02T04:08:54.894Z,1.90
2022-10-02T04:12:09.812Z,2.00
2022-10-02T04:15:29.918Z,2.00
2022-10-02T04:18:46.885Z,1.90
2022-10-02T04:22:01.250Z,1.90
2022-10-02T04:25:15.955Z,2.00
2022-10-02T04:28:30.287Z,1.80
2022-10-02T04:31:38.774Z,2.10
2022-10-02T04:34:47.129Z,2.10
2022-10-02T04:38:28.027Z,2.00
2022-10-02T04:41:59.076Z,2.00
2022-10-02T04:45:34.595Z,1.90
2022-10-02T04:49:16.910Z,2.00
2022-10-02T04:52:45.184Z,2.00
2022-10-02T04:56:15.501Z,2.00
2022-10-02T04:59:52.046Z,2.10
2022-10-02T05:03:23.957Z,2.00
2022-10-02T05:06:55.151Z,2.10
2022-10-02T05:10:24.339Z,2.10
2022-10-02T05:14:06.049Z,2.10
2022-10-02T05:17:43.016Z,2.10
2022-10-02T05:21:10.098Z,2.10
2022-10-02T05:24:41.437Z,2.10
2022-10-02T05:28:15.416Z,2.00
2022-10-02T05:31:41.752Z,2.20
2022-10-02T05:35:17.205Z,2.00
2022-10-02T05:38:53.271Z,2.10
2022-10-02T05:42:12.242Z,2.10
2022-10-02T05:45:29.898Z,1.80
2022-10-02T05:48:48.813Z,2.00
2022-10-02T05:52:05.176Z,2.00
2022-10-02T05:55:24.589Z,2.10
2022-10-02T05:58:39.820Z,2.00
2022-10-02T06:01:53.906Z,1.90
2022-10-02T06:05:15.054Z,2.20
2022-10-02T06:08:31.845Z,2.20
2022-10-02T06:11:47.983Z,1.90
2022-10-02T06:15:04.407Z,1.80
2022-10-02T06:18:18.683Z,1.80
2022-10-02T06:21:39.826Z,1.70
2022-10-02T06:24:55.432Z,1.80
2022-10-02T06:28:13.064Z,1.70
2022-10-02T06:31:35.231Z,1.60
2022-10-02T06:34:47.996Z,1.80
2022-10-02T06:38:25.444Z,1.80
2022-10-02T06:41:49.119Z,1.80
2022-10-02T06:45:08.791Z,1.70
2022-10-02T06:48:33.114Z,1.70
2022-10-02T06:51:59.532Z,1.80
2022-10-02T06:55:31.391Z,1.70
2022-10-02T06:58:55.553Z,1.70
2022-10-02T07:02:23.334Z,1.90
2022-10-02T07:06:04.737Z,1.80
2022-10-02T07:09:44.756Z,1.80
2022-10-02T07:13:24.091Z,1.70
2022-10-02T07:16:52.285Z,1.70
2022-10-02T07:20:24.344Z,1.60
2022-10-02T07:23:57.769Z,1.60
2022-10-02T07:27:20.445Z,1.70
2022-10-02T07:30:35.843Z,1.80
2022-10-02T07:34:07.677Z,1.80
2022-10-02T07:37:29.458Z,1.70
2022-10-02T07:40:51.134Z,1.70
2022-10-02T07:44:15.886Z,1.80
2022-10-02T07:47:44.866Z,1.60
2022-10-02T07:51:30.917Z,1.70
2022-10-02T07:55:15.328Z,1.70
2022-10-02T07:58:37.167Z,1.90
2022-10-02T08:01:48.176Z,1.70
2022-10-02T08:05:02.951Z,1.70
2022-10-02T08:08:21.704Z,1.80
2022-10-02T08:11:37.547Z,1.60
2022-10-02T08:14:48.217Z,1.80
2022-10-02T08:18:22.802Z,1.50
2022-10-02T08:21:37.686Z,1.60
2022-10-02T08:24:52.493Z,1.70
2022-10-02T08:28:06.968Z,1.50
2022-10-02T08:31:17.293Z,1.90
2022-10-02T08:34:27.548Z,1.70
2022-10-02T08:37:47.206Z,1.60
2022-10-02T08:42:04.180Z,1.70
2022-10-02T08:45:52.540Z,1.50
2022-10-02T08:50:05.106Z,1.50
2022-10-02T08:54:04.458Z,1.70
2022-10-02T08:57:47.289Z,1.60
2022-10-02T09:01:17.517Z,1.70
2022-10-02T09:05:13.046Z,1.50
2022-10-02T09:09:15.771Z,1.50
2022-10-02T09:13:12.148Z,1.70
2022-10-02T09:16:38.298Z,1.60
2022-10-02T09:20:11.481Z,1.60
2022-10-02T09:23:57.973Z,1.80
2022-10-02T09:27:55.085Z,1.60
2022-10-02T09:31:52.774Z,1.50
2022-10-02T09:35:38.653Z,1.60
2022-10-02T09:39:30.733Z,1.50
2022-10-02T09:43:37.649Z,1.80
2022-10-02T09:47:35.788Z,1.60
2022-10-02T09:51:17.612Z,1.40
2022-10-02T09:55:15.702Z,1.50
2022-10-02T09:59:23.808Z,1.60
2022-10-02T10:03:13.368Z,1.70
2022-10-02T10:10:53.860Z,1.50
2022-10-02T10:14:44.016Z,1.50
2022-10-02T10:18:48.135Z,1.90
2022-10-02T10:22:39.180Z,1.70
2022-10-02T10:26:34.829Z,1.70
2022-10-02T10:30:26.710Z,1.50
2022-10-02T10:34:46.645Z,1.80
2022-10-02T10:38:34.744Z,1.60
2022-10-02T10:42:28.062Z,1.60
2022-10-02T10:46:06.447Z,1.90
2022-10-02T10:50:02.570Z,1.90
2022-10-02T10:53:57.221Z,1.80
2022-10-02T10:57:23.705Z,1.90
2022-10-02T11:00:49.175Z,1.70
2022-10-02T11:04:41.943Z,2.00
2022-10-02T11:08:19.345Z,2.10
2022-10-02T11:11:40.495Z,2.00
2022-10-02T11:15:13.561Z,1.60
2022-10-02T11:18:43.296Z,1.90
2022-10-02T11:22:31.134Z,1.70
2022-10-02T11:26:25.142Z,1.70
2022-10-02T11:30:26.971Z,1.80
2022-10-02T11:34:16.797Z,1.50
2022-10-02T11:37:50.253Z,1.80
2022-10-02T11:41:28.832Z,1.60
2022-10-02T11:45:02.256Z,1.70
2022-10-02T11:48:46.751Z,1.70
2022-10-02T11:52:33.296Z,1.50
2022-10-02T11:56:03.505Z,1.60
2022-10-02T11:59:30.955Z,1.60
2022-10-02T12:02:51.161Z,1.60
2022-10-02T12:06:13.343Z,1.60
2022-10-02T12:09:36.575Z,1.40
2022-10-02T12:12:59.202Z,1.40
2022-10-02T12:16:25.099Z,1.50
2022-10-02T12:20:14.123Z,1.60
2022-10-02T12:24:00.158Z,3.50
2022-10-02T12:27:18.862Z,3.60
2022-10-02T12:30:35.312Z,1.80
2022-10-02T12:34:01.500Z,1.60
2022-10-02T12:37:22.450Z,2.00
2022-10-02T12:40:44.061Z,2.60
2022-10-02T12:44:29.413Z,2.10
2022-10-02T12:48:25.232Z,1.60
2022-10-02T12:51:40.936Z,2.60
2022-10-02T12:55:51.649Z,1.90
2022-10-02T12:59:13.026Z,1.90
2022-10-02T13:03:09.800Z,1.90
2022-10-02T13:06:59.704Z,2.10
2022-10-02T13:10:19.610Z,1.70
2022-10-02T13:13:52.415Z,1.70
2022-10-02T13:17:24.262Z,1.70
2022-10-02T13:20:42.845Z,1.80
2022-10-02T13:24:07.793Z,1.80
2022-10-02T13:27:31.993Z,2.70
2022-10-02T13:30:49.561Z,1.90
2022-10-02T13:34:20.081Z,2.10
2022-10-02T13:37:48.439Z,2.00
2022-10-02T13:41:14.173Z,2.30
2022-10-02T13:44:37.922Z,1.60
2022-10-02T13:47:57.523Z,1.70
2022-10-02T13:51:14.203Z,1.80
2022-10-02T13:54:45.451Z,1.60
2022-10-02T13:58:25.509Z,1.60
2022-10-02T14:01:51.222Z,1.60
2022-10-02T14:05:12.241Z,1.90
2022-10-02T14:08:53.073Z,1.70
2022-10-02T14:12:26.113Z,1.60
2022-10-02T14:15:54.701Z,1.40
2022-10-02T14:19:32.691Z,1.40
2022-10-02T14:23:02.685Z,1.60
2022-10-02T14:26:28.109Z,1.60
2022-10-02T14:29:50.424Z,1.70
2022-10-02T14:33:10.239Z,1.50
2022-10-02T14:39:39.104Z,1.50
2022-10-02T14:43:38.886Z,1.70
2022-10-02T14:50:34.302Z,1.80
2022-10-02T14:54:14.522Z,1.50
2022-10-02T14:57:58.673Z,1.60
2022-10-02T15:01:23.505Z,1.80
2022-10-02T15:04:47.990Z,1.80
2022-10-02T15:08:08.398Z,1.50
2022-10-02T15:11:57.715Z,2.00
2022-10-02T15:15:23.744Z,1.90
2022-10-02T15:18:53.012Z,1.70
2022-10-02T15:26:11.187Z,2.00
2022-10-02T15:29:46.290Z,2.00
2022-10-02T15:33:20.939Z,1.70
2022-10-02T15:37:12.879Z,1.90
2022-10-02T15:40:46.277Z,2.00
2022-10-02T15:44:25.966Z,1.80
2022-10-02T15:48:20.214Z,2.00
2022-10-02T15:52:11.967Z,1.90
2022-10-02T15:55:39.780Z,2.10
2022-10-02T15:59:16.663Z,3.10
2022-10-02T16:02:54.687Z,3.50
2022-10-02T16:06:14.273Z,7.30
2022-10-02T16:09:50.700Z,5.10
2022-10-02T16:13:46.293Z,2.70
2022-10-02T16:17:41.826Z,2.50
2022-10-02T16:21:24.056Z,2.60
2022-10-02T16:25:07.619Z,3.40
2022-10-02T16:28:45.174Z,3.50
2022-10-02T16:32:12.940Z,3.00
2022-10-02T16:36:08.792Z,3.00
2022-10-02T16:39:43.532Z,2.60
2022-10-02T16:43:13.139Z,2.50
2022-10-02T16:46:29.263Z,2.40
2022-10-02T16:49:52.980Z,2.20
2022-10-02T16:53:12.910Z,2.00
2022-10-02T16:56:32.516Z,2.20
2022-10-02T16:59:54.503Z,2.00
2022-10-02T17:03:11.680Z,4.20
2022-10-02T17:06:34.878Z,5.80
2022-10-02T17:09:53.704Z,3.30
2022-10-02T17:13:28.430Z,2.50
2022-10-02T17:16:46.661Z,3.10
2022-10-02T17:20:16.792Z,3.10
2022-10-02T17:23:35.890Z,2.80
2022-10-02T17:26:54.212Z,3.30
2022-10-02T17:30:16.767Z,3.20
2022-10-02T17:33:32.515Z,5.00
2022-10-02T17:36:50.430Z,4.10
2022-10-02T17:40:22.689Z,4.90
2022-10-02T17:43:42.163Z,3.80
2022-10-02T17:51:14.180Z,2.30
2022-10-02T17:55:09.407Z,2.70
2022-10-02T17:58:28.701Z,3.40
2022-10-02T18:05:49.025Z,4.10
2022-10-02T18:09:53.575Z,3.50
2022-10-02T18:13:27.942Z,3.30
2022-10-02T18:16:50.903Z,2.80
2022-10-02T18:20:16.354Z,2.40
2022-10-02T18:23:51.295Z,2.70
2022-10-02T18:27:39.630Z,2.40
2022-10-02T18:31:00.512Z,2.50
2022-10-02T18:34:42.760Z,2.30
2022-10-02T18:38:08.706Z,2.40
2022-10-02T18:41:44.341Z,2.70
2022-10-02T18:45:10.418Z,2.00
2022-10-02T18:48:49.179Z,2.20
2022-10-02T18:52:47.366Z,2.90
2022-10-02T18:56:07.791Z,2.70
2022-10-02T18:59:35.668Z,2.40
2022-10-02T19:03:15.877Z,2.20
2022-10-02T19:06:44.182Z,2.80
2022-10-02T19:10:40.536Z,2.00
2022-10-02T19:13:53.595Z,2.90
2022-10-02T19:17:05.492Z,2.40
2022-10-02T19:20:44.575Z,2.50
2022-10-02T19:24:00.530Z,2.20
2022-10-02T19:27:26.546Z,2.40
2022-10-02T19:30:47.866Z,2.20
2022-10-02T19:34:03.642Z,2.00
2022-10-02T19:37:17.567Z,1.80
2022-10-02T19:40:33.630Z,1.80
2022-10-02T19:43:54.875Z,1.90
2022-10-02T19:47:13.241Z,1.70
2022-10-02T19:50:35.264Z,1.70
2022-10-02T19:53:50.818Z,1.50
2022-10-02T19:57:16.651Z,1.50
2022-10-02T20:00:25.605Z,1.20
2022-10-02T20:03:36.188Z,1.40
2022-10-02T20:06:49.993Z,1.30
2022-10-02T20:10:03.353Z,1.20
2022-10-02T20:13:25.055Z,1.30
2022-10-02T20:16:54.580Z,1.30
2022-10-02T20:20:16.841Z,1.20
2022-10-02T20:23:31.508Z,1.10
2022-10-02T20:26:44.331Z,1.40
2022-10-02T20:30:01.848Z,1.40
2022-10-02T20:33:19.410Z,1.30
2022-10-02T20:36:33.743Z,1.30
2022-10-02T20:39:47.450Z,1.30
2022-10-02T20:43:02.522Z,1.30
2022-10-02T20:46:42.238Z,1.40
2022-10-02T20:50:36.499Z,1.40
2022-10-02T20:54:36.351Z,1.50
2022-10-02T21:01:43.493Z,1.50
2022-10-02T21:05:33.925Z,1.40
2022-10-02T21:09:16.133Z,1.40
2022-10-02T21:12:47.857Z,1.30
2022-10-02T21:16:34.281Z,1.60
2022-10-02T21:20:49.587Z,1.30
2022-10-02T21:24:51.711Z,1.40
2022-10-02T21:29:05.477Z,1.40
2022-10-02T21:32:39.310Z,1.50
2022-10-02T21:35:56.957Z,1.50
2022-10-02T21:39:51.600Z,1.60
2022-10-02T21:43:48.947Z,1.40
2022-10-02T21:47:47.865Z,1.60
2022-10-02T21:51:46.484Z,1.40
2022-10-02T21:55:43.157Z,1.50
2022-10-02T21:59:36.425Z,1.70
2022-10-02T22:03:22.571Z,1.60
2022-10-02T22:06:51.164Z,1.60
2022-10-02T22:10:12.814Z,1.70
2022-10-02T22:13:34.056Z,1.70
2022-10-02T22:16:57.744Z,1.70
2022-10-02T22:20:44.996Z,1.60
2022-10-02T22:24:44.562Z,1.70
2022-10-02T22:28:11.489Z,1.80
2022-10-02T22:32:39.879Z,1.70
2022-10-02T22:36:35.419Z,1.60
2022-10-02T22:39:58.421Z,1.60
2022-10-02T22:43:19.566Z,1.70
2022-10-02T22:46:47.425Z,1.70
2022-10-02T22:50:10.375Z,1.60
2022-10-02T22:53:33.628Z,1.70
2022-10-02T22:56:51.799Z,1.90
2022-10-02T23:00:13.429Z,1.60
2022-10-02T23:03:31.645Z,1.90
2022-10-02T23:06:50.627Z,1.70
2022-10-02T23:10:06.318Z,1.90
2022-10-02T23:13:27.635Z,2.00
2022-10-02T23:16:45.567Z,2.00
2022-10-02T23:20:03.264Z,1.90
2022-10-02T23:23:24.659Z,2.00
2022-10-02T23:26:41.913Z,2.00
2022-10-02T23:30:00.736Z,2.00
2022-10-02T23:33:22.361Z,2.00
2022-10-02T23:36:45.826Z,1.80
2022-10-02T23:40:05.058Z,1.80
2022-10-02T23:43:21.367Z,1.90
2022-10-02T23:46:36.578Z,2.10
2022-10-02T23:49:50.145Z,2.00
2022-10-02T23:53:35.331Z,1.90
2022-10-02T23:57:29.698Z,1.90
